Time;durP1;ratioP1;P1;durP2;ratioP2;P2;SDS_P1;SDS_P2;PMS_P1;PMS_P2;Temp;Humidity;BMP_temperature;BMP_pressure;BME280_temperature;BME280_humidity;BME280_pressure;Samples;Min_cycle;Max_cycle;Signal;HPM_P1;HPM_P2
2022/11/18 00:02:02;;;;;;;14.13;4.20;;;;;;;4.63;100.00;99634.72;6200178;28;20517;-72
2022/11/18 00:05:04;;;;;;;5.63;3.70;;;;;;;4.62;100.00;99630.44;6200087;28;20050;-71
2022/11/18 00:08:06;;;;;;;9.57;4.47;;;;;;;4.58;100.00;99630.56;6200352;28;20050;-71
2022/11/18 00:11:09;;;;;;;8.40;4.15;;;;;;;4.61;100.00;99634.78;6199758;28;20383;-72
2022/11/18 00:14:18;;;;;;;9.52;4.45;;;;;;;4.57;100.00;99651.47;6199915;28;20046;-72
2022/11/18 00:17:20;;;;;;;12.07;4.47;;;;;;;4.57;100.00;99656.66;6200135;28;20050;-71
2022/11/18 00:20:22;;;;;;;10.30;4.20;;;;;;;4.55;100.00;99659.34;6199750;28;20046;-72
2022/11/18 00:23:23;;;;;;;9.85;4.00;;;;;;;4.60;100.00;99660.91;6199875;28;20058;-71
2022/11/18 00:26:24;;;;;;;10.13;4.65;;;;;;;4.60;100.00;99663.50;6199032;28;20509;-71
2022/11/18 00:29:27;;;;;;;12.38;4.40;;;;;;;4.61;100.00;99670.38;6199827;28;20050;-71
2022/11/18 00:32:29;;;;;;;9.80;4.68;;;;;;;4.55;100.00;99663.72;6199264;28;20609;-71
2022/11/18 00:35:31;;;;;;;7.35;3.83;;;;;;;4.52;100.00;99659.47;6199331;28;20054;-72
2022/11/18 00:38:32;;;;;;;8.10;3.60;;;;;;;4.54;100.00;99673.28;6199723;28;20065;-72
2022/11/18 00:44:49;;;;;;;8.02;4.10;;;;;;;4.50;100.00;99684.72;6198601;28;20506;-71
2022/11/18 00:47:52;;;;;;;11.55;4.93;;;;;;;4.49;100.00;99692.59;6199439;28;20053;-72
2022/11/18 00:50:56;;;;;;;9.05;3.92;;;;;;;4.53;100.00;99694.97;6199044;28;20062;-72
2022/11/18 00:53:57;;;;;;;5.20;3.25;;;;;;;4.52;100.00;99692.47;6198957;28;20057;-72
2022/11/18 00:56:58;;;;;;;10.40;4.13;;;;;;;4.53;100.00;99694.13;6199020;28;20053;-72
2022/11/18 01:00:00;;;;;;;9.55;4.13;;;;;;;4.47;100.00;99700.47;6198954;28;20076;-71
2022/11/18 01:03:03;;;;;;;5.75;3.63;;;;;;;4.48;100.00;99704.75;6198832;28;20058;-71
2022/11/18 01:06:04;;;;;;;8.45;3.95;;;;;;;4.41;100.00;99703.34;6198482;28;20054;-72
2022/11/18 01:09:06;;;;;;;9.15;4.18;;;;;;;4.40;100.00;99703.41;6198921;28;20046;-71
2022/11/18 01:15:38;;;;;;;8.05;4.15;;;;;;;4.51;100.00;99716.78;6198336;28;20506;-71
2022/11/18 01:18:41;;;;;;;7.25;3.80;;;;;;;4.56;100.00;99720.03;6198677;28;20057;-72
2022/11/18 01:21:42;;;;;;;14.48;4.40;;;;;;;4.53;100.00;99727.97;6198238;28;20502;-71
2022/11/18 01:24:44;;;;;;;7.32;3.33;;;;;;;4.52;100.00;99727.13;6198164;28;20050;-71
2022/11/18 01:27:45;;;;;;;11.68;3.85;;;;;;;4.43;100.00;99724.94;6198601;28;20050;-71
2022/11/18 01:30:47;;;;;;;14.55;4.80;;;;;;;4.47;100.00;99731.69;6198105;28;20061;-72
2022/11/18 01:33:49;;;;;;;9.43;4.10;;;;;;;4.46;100.00;99729.16;6197962;28;20046;-72
2022/11/18 01:36:52;;;;;;;8.32;3.60;;;;;;;4.47;100.00;99728.25;6198394;28;20057;-72
2022/11/18 01:39:54;;;;;;;9.98;4.05;;;;;;;4.43;100.00;99737.09;6196923;28;20434;-72
2022/11/18 01:42:55;;;;;;;7.13;3.08;;;;;;;4.46;100.00;99730.00;6198372;28;20050;-72
2022/11/18 01:45:56;;;;;;;10.30;3.85;;;;;;;4.46;100.00;99727.41;6216481;23;20060;-72
2022/11/18 01:49:06;;;;;;;12.27;5.00;;;;;;;4.44;100.00;99736.19;6220649;28;20512;-71
2022/11/18 01:52:08;;;;;;;8.45;3.50;;;;;;;4.46;100.00;99732.59;6197712;28;20289;-72
2022/11/18 01:55:14;;;;;;;7.15;3.75;;;;;;;4.38;100.00;99736.47;6218077;28;20045;-71
2022/11/18 01:58:23;;;;;;;7.95;3.75;;;;;;;4.36;100.00;99739.13;6222289;28;20042;-72
2022/11/18 02:01:26;;;;;;;8.73;3.70;;;;;;;4.32;100.00;99748.81;6221852;28;20065;-71
2022/11/18 02:04:28;;;;;;;6.22;3.40;;;;;;;4.42;100.00;99751.03;6221571;28;20049;-71
2022/11/18 02:07:32;;;;;;;8.43;3.08;;;;;;;4.40;100.00;99751.06;6222002;28;20509;-72
2022/11/18 02:10:34;;;;;;;6.38;3.25;;;;;;;4.40;100.00;99755.44;6221782;28;20505;-72
2022/11/18 02:13:35;;;;;;;8.27;3.70;;;;;;;4.37;100.00;99756.44;6221978;28;20516;-72
2022/11/18 02:16:52;;;;;;;6.65;2.97;;;;;;;4.38;100.00;99757.25;6221530;28;20520;-72
2022/11/18 02:20:22;;;;;;;10.35;3.63;;;;;;;4.35;100.00;99760.00;6221943;28;20057;-71
2022/11/18 02:24:14;;;;;;;8.77;3.78;;;;;;;4.41;100.00;99752.78;6222011;28;20053;-71
2022/11/18 02:27:34;;;;;;;6.50;3.22;;;;;;;4.33;100.00;99760.91;6221558;28;20453;-73
2022/11/18 02:30:44;;;;;;;7.10;3.22;;;;;;;4.37;100.00;99763.38;6221571;28;20524;-71
2022/11/18 02:33:53;;;;;;;6.55;3.97;;;;;;;4.36;100.00;99767.75;6221480;28;20049;-71
2022/11/18 02:37:00;;;;;;;8.00;4.22;;;;;;;4.41;100.00;99772.75;6221843;28;20145;-71
2022/11/18 02:40:07;;;;;;;7.40;3.28;;;;;;;4.44;100.00;99768.22;6221351;28;20498;-72
2022/11/18 02:43:13;;;;;;;7.72;3.80;;;;;;;4.49;100.00;99770.63;6221726;28;20076;-72
2022/11/18 02:46:20;;;;;;;11.93;4.25;;;;;;;4.38;100.00;99778.06;6221256;28;20042;-71
2022/11/18 02:49:26;;;;;;;10.85;4.53;;;;;;;4.38;100.00;99773.72;6222156;28;20065;-72
2022/11/18 02:52:28;;;;;;;6.78;3.83;;;;;;;4.38;100.00;99773.72;6226173;28;20053;-71
2022/11/18 02:55:34;;;;;;;10.68;5.00;;;;;;;4.32;100.00;99784.38;6225679;28;20421;-71
2022/11/18 02:58:35;;;;;;;11.88;3.90;;;;;;;4.31;100.00;99786.16;6226585;28;20053;-71
2022/11/18 03:01:38;;;;;;;8.70;4.25;;;;;;;4.36;100.00;99779.88;6225676;28;20053;-71
2022/11/18 03:04:39;;;;;;;11.57;5.03;;;;;;;4.38;100.00;99783.28;6225599;28;20521;-71
2022/11/18 03:07:44;;;;;;;16.35;4.38;;;;;;;4.35;100.00;99792.03;6225914;28;20057;-72
2022/11/18 03:10:52;;;;;;;10.20;4.32;;;;;;;4.45;100.00;99782.94;6225847;28;20049;-71
2022/11/18 03:14:07;;;;;;;8.15;4.20;;;;;;;4.38;100.00;99783.28;6225270;28;20569;-71
2022/11/18 03:17:14;;;;;;;8.57;4.10;;;;;;;4.37;100.00;99779.00;6226124;28;20050;-71
2022/11/18 03:20:25;;;;;;;10.52;4.75;;;;;;;4.30;100.00;99778.41;6225582;28;20053;-71
2022/11/18 03:23:33;;;;;;;13.13;5.03;;;;;;;4.32;100.00;99785.22;6225881;28;20050;-71
2022/11/18 03:26:38;;;;;;;12.00;5.82;;;;;;;4.33;100.00;99792.13;6225027;28;20489;-71
2022/11/18 03:29:47;;;;;;;10.52;4.97;;;;;;;4.30;100.00;99797.44;6225274;28;20054;-71
2022/11/18 03:32:56;;;;;;;10.77;4.45;;;;;;;4.26;100.00;99802.84;6225541;28;20053;-71
2022/11/18 03:36:01;;;;;;;13.17;5.87;;;;;;;4.31;100.00;99813.88;6225201;28;20516;-71
2022/11/18 03:39:05;;;;;;;12.02;4.97;;;;;;;4.30;100.00;99822.59;6225411;28;20050;-71
2022/11/18 03:42:12;;;;;;;12.05;5.45;;;;;;;4.26;100.00;99828.84;6224979;28;20050;-71
2022/11/18 03:45:19;;;;;;;8.90;3.88;;;;;;;4.26;100.00;99826.25;6224556;28;20521;-71
2022/11/18 03:48:26;;;;;;;11.57;4.45;;;;;;;4.28;100.00;99822.69;6225211;28;20060;-71
2022/11/18 03:51:32;;;;;;;11.90;4.95;;;;;;;4.27;100.00;99833.13;6224670;28;20057;-71
2022/11/18 03:54:38;;;;;;;10.70;4.50;;;;;;;4.30;100.00;99826.06;6222505;28;20053;-72
2022/11/18 03:57:49;;;;;;;10.45;5.32;;;;;;;4.25;100.00;99822.81;6225220;28;20054;-71
2022/11/18 04:00:56;;;;;;;10.90;4.80;;;;;;;4.23;100.00;99824.63;6223488;28;20054;-71
2022/11/18 04:03:59;;;;;;;11.38;4.93;;;;;;;4.16;100.00;99823.19;6224477;28;20050;-71
2022/11/18 04:07:06;;;;;;;14.93;5.68;;;;;;;4.15;100.00;99833.66;6224685;28;20498;-71
2022/11/18 04:10:13;;;;;;;11.93;4.78;;;;;;;4.17;100.00;99842.22;6224407;28;20053;-71
2022/11/18 04:13:19;;;;;;;8.65;4.70;;;;;;;4.18;100.00;99844.78;6224510;28;20506;-72
2022/11/18 04:16:21;;;;;;;13.85;4.85;;;;;;;4.13;100.00;99851.91;6224210;28;20054;-72
2022/11/18 04:19:24;;;;;;;10.55;5.45;;;;;;;4.08;100.00;99859.91;6224467;28;20061;-72
2022/11/18 04:22:25;;;;;;;8.80;4.15;;;;;;;4.12;100.00;99863.22;6224211;28;20049;-71
2022/11/18 04:25:27;;;;;;;12.20;5.53;;;;;;;4.08;100.00;99872.91;6223707;28;20046;-71
2022/11/18 04:28:28;;;;;;;9.65;3.97;;;;;;;4.20;100.00;99874.16;6224314;28;20107;-71
2022/11/18 04:31:30;;;;;;;11.35;5.30;;;;;;;4.24;100.00;99885.28;6223671;28;20058;-71
2022/11/18 04:34:33;;;;;;;9.38;4.45;;;;;;;4.30;100.00;99888.47;6224037;28;20053;-71
2022/11/18 04:37:35;;;;;;;11.45;4.78;;;;;;;4.26;100.00;99897.31;6223902;28;20053;-71
2022/11/18 04:40:36;;;;;;;14.90;4.90;;;;;;;4.27;100.00;99891.22;6223507;28;20573;-70
2022/11/18 04:43:37;;;;;;;11.25;4.88;;;;;;;4.26;100.00;99891.25;6224056;28;20057;-71
2022/11/18 04:46:40;;;;;;;11.75;4.88;;;;;;;4.21;100.00;99893.19;6223435;28;20054;-72
2022/11/18 04:49:43;;;;;;;10.95;4.20;;;;;;;4.11;100.00;99897.09;6223771;28;20097;-71
2022/11/18 04:52:44;;;;;;;12.43;4.70;;;;;;;4.11;100.00;99900.53;6223563;28;20050;-71
2022/11/18 04:55:46;;;;;;;9.38;4.57;;;;;;;4.09;100.00;99897.16;6223032;28;20069;-71
2022/11/18 04:58:47;;;;;;;13.63;5.55;;;;;;;4.09;100.00;99899.75;6223377;28;20058;-71
2022/11/18 05:01:49;;;;;;;13.40;5.53;;;;;;;4.13;100.00;99903.06;6223008;28;20569;-71
2022/11/18 05:04:52;;;;;;;11.98;4.80;;;;;;;4.11;100.00;99904.91;6222934;28;20042;-71
2022/11/18 05:07:53;;;;;;;11.05;5.53;;;;;;;4.09;100.00;99904.97;6223247;28;20049;-71
2022/11/18 05:12:47;;;;;;;15.10;5.15;;;;;;;3.96;100.00;99912.41;6222935;28;20049;-71
2022/11/18 05:14:16;;;;;;;12.95;5.45;;;;;;;3.95;100.00;99902.03;6222559;28;20127;-71
2022/11/18 05:17:18;;;;;;;11.20;5.40;;;;;;;3.93;100.00;99909.06;6223131;28;20054;-71
2022/11/18 05:20:21;;;;;;;11.73;5.63;;;;;;;3.94;100.00;99915.94;6222670;28;20065;-71
2022/11/18 05:23:22;;;;;;;11.00;3.88;;;;;;;3.85;100.00;99911.97;6223127;28;20052;-71
2022/11/18 05:26:24;;;;;;;10.90;6.00;;;;;;;3.86;100.00;99918.00;6222492;28;20482;-71
2022/11/18 05:29:25;;;;;;;11.88;6.13;;;;;;;3.80;100.00;99913.91;6222993;28;20061;-71
2022/11/18 05:32:27;;;;;;;13.40;6.22;;;;;;;3.65;100.00;99914.50;6222282;28;20413;-71
2022/11/18 05:35:29;;;;;;;13.52;5.47;;;;;;;3.72;100.00;99916.78;6222645;28;20042;-71
2022/11/18 05:38:32;;;;;;;17.02;5.95;;;;;;;3.65;100.00;99919.69;6222578;28;20506;-71
2022/11/18 05:44:52;;;;;;;;;;;;;;;3.76;100.00;99917.53;6222424;28;20462;-72
2022/11/18 05:47:59;;;;;;;15.48;5.93;;;;;;;3.78;100.00;99926.13;6222401;28;19921;-71
2022/11/18 05:51:02;;;;;;;12.38;6.05;;;;;;;3.76;100.00;99927.91;6222255;28;20056;-71
2022/11/18 05:54:07;;;;;;;11.55;4.45;;;;;;;3.71;100.00;99930.69;6222141;28;20045;-71
2022/11/18 05:57:08;;;;;;;16.35;6.07;;;;;;;3.60;100.00;99937.22;6222239;28;20129;-72
2022/11/18 06:00:11;;;;;;;18.88;5.47;;;;;;;3.67;100.00;99949.03;6222017;28;20057;-71
2022/11/18 06:03:18;;;;;;;14.00;6.07;;;;;;;3.61;100.00;99952.72;6222431;28;20042;-71
2022/11/18 06:06:24;;;;;;;14.30;5.63;;;;;;;3.63;100.00;99966.50;6221906;28;20506;-71
2022/11/18 06:09:30;;;;;;;17.05;6.35;;;;;;;3.69;100.00;99971.47;6229869;28;20050;-70
2022/11/18 06:12:36;;;;;;;15.10;6.07;;;;;;;3.72;100.00;99986.09;6221791;28;20074;-71
2022/11/18 06:15:42;;;;;;;19.98;6.90;;;;;;;3.68;100.00;99987.97;6229570;28;20041;-71
2022/11/18 06:18:43;;;;;;;16.10;6.75;;;;;;;3.62;100.00;99992.53;6222147;28;20057;-71
2022/11/18 06:21:47;;;;;;;15.85;6.18;;;;;;;3.58;100.00;99996.16;6221810;28;20502;-71
2022/11/18 06:24:48;;;;;;;14.85;6.43;;;;;;;3.50;100.00;100001.66;6223000;28;20046;-71
2022/11/18 06:27:52;;;;;;;16.75;7.35;;;;;;;3.52;100.00;100003.28;6227211;28;20425;-71
2022/11/18 06:30:53;;;;;;;13.57;5.40;;;;;;;3.50;100.00;100006.84;6225694;28;20053;-71
2022/11/18 06:33:55;;;;;;;14.85;6.70;;;;;;;3.49;100.00;100005.97;6226666;28;20054;-71
2022/11/18 06:36:57;;;;;;;15.82;6.88;;;;;;;3.54;100.00;100013.59;6226816;28;20045;-71
2022/11/18 06:39:59;;;;;;;19.58;7.95;;;;;;;3.51;100.00;100017.16;6226372;28;20057;-71
2022/11/18 06:49:43;;;;;;;21.23;8.38;;;;;;;3.44;100.00;100030.41;6226228;28;20050;-71
2022/11/18 06:52:46;;;;;;;16.05;7.32;;;;;;;3.38;100.00;100028.91;6226694;28;20049;-71
2022/11/18 06:55:47;;;;;;;13.85;7.05;;;;;;;3.33;100.00;100030.81;6225849;28;20042;-71
2022/11/18 06:58:53;;;;;;;18.20;7.32;;;;;;;3.24;100.00;100029.38;6226727;28;20061;-71
2022/11/18 07:01:55;;;;;;;16.98;7.45;;;;;;;3.30;100.00;100033.50;6225914;28;20520;-71
2022/11/18 07:04:57;;;;;;;17.65;7.32;;;;;;;3.27;100.00;100044.00;6226068;28;20045;-71
2022/11/18 07:08:00;;;;;;;15.13;6.63;;;;;;;3.30;100.00;100042.13;6226177;28;20061;-71
2022/11/18 07:11:01;;;;;;;12.82;5.93;;;;;;;3.37;100.00;100049.75;6226139;28;20060;-72
2022/11/18 07:14:02;;;;;;;15.27;7.30;;;;;;;3.29;100.00;100055.19;6207039;28;20054;-71
2022/11/18 07:17:04;;;;;;;16.23;6.97;;;;;;;3.36;100.00;100066.19;6200403;28;20054;-72
2022/11/18 07:20:06;;;;;;;20.92;8.50;;;;;;;3.34;100.00;100063.66;6200011;28;20051;-71
2022/11/18 07:23:09;;;;;;;18.08;6.78;;;;;;;3.31;100.00;100071.53;6199553;28;20490;-71
2022/11/18 07:26:11;;;;;;;14.93;7.82;;;;;;;3.41;100.00;100077.31;6199712;28;20050;-71
2022/11/18 07:29:12;;;;;;;17.65;7.68;;;;;;;3.42;100.00;100066.84;6199842;28;20050;-72
2022/11/18 07:32:14;;;;;;;14.75;5.97;;;;;;;3.39;100.00;100082.53;6200380;28;20054;-72
2022/11/18 07:35:17;;;;;;;16.67;7.60;;;;;;;3.50;100.00;100090.81;6200692;28;20047;-72
2022/11/18 07:38:20;;;;;;;20.10;7.50;;;;;;;3.49;100.00;100099.47;6201445;28;20418;-72
2022/11/18 07:41:23;;;;;;;16.65;7.68;;;;;;;3.41;100.00;100105.88;6200585;28;20053;-72
2022/11/18 07:44:25;;;;;;;19.92;6.45;;;;;;;3.39;100.00;100103.31;6200572;28;20050;-72
2022/11/18 07:47:26;;;;;;;18.13;6.72;;;;;;;3.46;100.00;100103.97;6201121;28;20043;-71
2022/11/18 07:50:28;;;;;;;19.40;8.05;;;;;;;3.44;100.00;100108.34;6200335;28;20050;-71
2022/11/18 07:53:32;;;;;;;17.83;7.53;;;;;;;3.40;100.00;100112.78;6200742;28;20050;-72
2022/11/18 07:56:33;;;;;;;21.40;8.20;;;;;;;3.46;100.00;100111.75;6197314;28;20046;-71
2022/11/18 07:59:34;;;;;;;18.95;8.18;;;;;;;3.41;100.00;100114.50;6199487;28;20054;-71
2022/11/18 08:02:36;;;;;;;23.02;7.57;;;;;;;3.45;100.00;100120.41;6200134;28;20053;-72
2022/11/18 08:05:37;;;;;;;19.25;7.45;;;;;;;3.39;100.00;100115.44;6200183;28;20051;-72
2022/11/18 08:08:40;;;;;;;16.65;8.52;;;;;;;3.22;100.00;100121.19;6200588;28;20065;-72
2022/11/18 08:11:42;;;;;;;19.73;7.75;;;;;;;3.25;100.00;100127.13;6200210;28;20054;-71
2022/11/18 08:14:43;;;;;;;20.45;8.82;;;;;;;3.21;100.00;100125.53;6200004;28;20506;-71
2022/11/18 08:17:45;;;;;;;31.75;8.90;;;;;;;3.12;100.00;100136.22;6200447;28;20042;-71
2022/11/18 08:20:46;;;;;;;25.13;10.57;;;;;;;3.23;100.00;100128.09;6197810;28;20614;-73
2022/11/18 08:23:51;;;;;;;22.50;8.45;;;;;;;3.13;100.00;100140.50;6195875;28;20060;-72
2022/11/18 08:26:53;;;;;;;20.95;8.60;;;;;;;3.15;100.00;100145.69;6199718;28;20046;-71
2022/11/18 08:29:54;;;;;;;19.55;8.07;;;;;;;3.13;100.00;100143.13;6194969;28;20127;-72
2022/11/18 08:32:56;;;;;;;20.23;8.25;;;;;;;3.18;100.00;100150.75;6175986;28;20055;-72
2022/11/18 08:35:57;;;;;;;21.42;8.80;;;;;;;3.03;100.00;100165.06;6175254;28;20046;-72
2022/11/18 08:39:02;;;;;;;23.63;9.75;;;;;;;2.90;100.00;100158.56;6184397;28;20046;-72
2022/11/18 08:42:03;;;;;;;24.58;8.27;;;;;;;2.97;100.00;100171.31;6199337;28;20058;-72
2022/11/18 08:45:07;;;;;;;20.98;8.45;;;;;;;2.88;100.00;100178.53;6199143;28;20050;-72
2022/11/18 08:48:08;;;;;;;25.55;9.38;;;;;;;2.86;100.00;100193.28;6199028;28;20050;-73
2022/11/18 08:51:11;;;;;;;24.55;9.10;;;;;;;2.89;100.00;100188.88;6199151;28;20058;-72
2022/11/18 08:54:14;;;;;;;22.80;8.85;;;;;;;2.82;100.00;100196.88;6198963;28;20050;-71
2022/11/18 08:57:15;;;;;;;24.00;8.88;;;;;;;3.00;100.00;100185.97;6180795;28;20046;-72
2022/11/18 09:00:18;;;;;;;24.13;10.85;;;;;;;3.01;100.00;100198.88;6174758;28;20054;-72
2022/11/18 09:03:20;;;;;;;26.02;9.25;;;;;;;2.99;100.00;100199.81;6197159;28;20050;-72
2022/11/18 09:06:23;;;;;;;26.88;9.70;;;;;;;2.96;100.00;100213.75;6198444;28;20430;-72
2022/11/18 09:09:26;;;;;;;23.35;9.05;;;;;;;2.94;100.00;100212.09;6199001;28;20080;-72
2022/11/18 09:12:27;;;;;;;25.23;9.43;;;;;;;2.76;100.00;100214.34;6198745;28;20050;-72
2022/11/18 09:15:29;;;;;;;19.35;8.68;;;;;;;2.86;100.00;100224.44;6198379;28;20046;-72
2022/11/18 09:18:31;;;;;;;24.30;9.60;;;;;;;2.78;100.00;100224.69;6198827;28;20054;-72
2022/11/18 09:21:32;;;;;;;25.98;9.52;;;;;;;2.77;100.00;100221.25;6198381;28;20502;-72
2022/11/18 09:24:36;;;;;;;21.00;9.43;;;;;;;2.65;100.00;100218.16;6198285;28;20061;-72
2022/11/18 09:27:37;;;;;;;20.73;9.68;;;;;;;2.82;100.00;100218.50;6198769;28;20138;-72
2022/11/18 09:30:39;;;;;;;20.35;8.95;;;;;;;2.80;100.00;100228.91;6198156;28;20054;-72
2022/11/18 09:33:40;;;;;;;24.27;9.25;;;;;;;2.83;100.00;100237.53;6198681;28;20089;-71
2022/11/18 09:36:42;;;;;;;25.73;9.23;;;;;;;2.78;100.00;100237.66;6198008;28;20517;-73
2022/11/18 09:39:44;;;;;;;22.02;9.88;;;;;;;2.77;100.00;100244.59;6198289;28;20050;-71
2022/11/18 09:42:57;;;;;;;23.88;8.70;;;;;;;2.85;100.00;100239.16;6198072;28;20050;-72
2022/11/18 09:46:03;;;;;;;24.77;9.88;;;;;;;2.82;100.00;100253.97;6197176;28;20043;-72
2022/11/18 09:49:14;;;;;;;26.80;8.93;;;;;;;2.85;100.00;100251.28;6197885;28;20046;-72
2022/11/18 09:52:19;;;;;;;18.13;8.00;;;;;;;2.86;100.00;100263.34;6197812;28;20050;-72
2022/11/18 09:55:23;;;;;;;23.45;10.05;;;;;;;2.77;100.00;100267.94;6197478;28;20058;-72
2022/11/18 09:58:31;;;;;;;19.70;7.65;;;;;;;2.93;100.00;100270.09;6197958;28;20043;-72
2022/11/18 10:01:32;;;;;;;15.32;6.93;;;;;;;2.74;100.00;100272.38;6197113;28;20050;-73
2022/11/18 10:04:34;;;;;;;16.90;8.27;;;;;;;2.66;100.00;100275.16;6197056;28;20046;-72
2022/11/18 10:07:46;;;;;;;16.30;6.72;;;;;;;2.76;100.00;100281.78;6197787;28;20053;-71
2022/11/18 10:10:59;;;;;;;13.52;6.93;;;;;;;2.75;100.00;100281.84;6197501;28;20073;-72
2022/11/18 10:14:13;;;;;;;18.52;7.40;;;;;;;2.64;100.00;100289.09;6197418;28;20413;-71
2022/11/18 10:17:31;;;;;;;14.60;6.15;;;;;;;2.66;100.00;100302.84;6197766;28;20431;-71
2022/11/18 10:20:43;;;;;;;13.55;7.00;;;;;;;2.68;100.00;100303.66;6197250;28;20054;-72
2022/11/18 10:23:52;;;;;;;20.02;8.10;;;;;;;2.58;100.00;100305.66;6197351;28;20054;-72
2022/11/18 10:26:57;;;;;;;15.52;7.40;;;;;;;2.47;100.00;100305.13;6197667;28;20097;-71
2022/11/18 10:30:00;;;;;;;17.60;6.72;;;;;;;2.53;100.00;100310.97;6197302;28;20054;-72
2022/11/18 10:33:04;;;;;;;15.45;7.25;;;;;;;2.54;100.00;100306.63;6197720;28;20046;-72
2022/11/18 10:36:18;;;;;;;19.55;7.43;;;;;;;2.51;100.00;100309.31;6197227;28;20050;-71
2022/11/18 10:39:19;;;;;;;22.75;7.85;;;;;;;2.48;100.00;100307.66;6197415;28;20061;-71
2022/11/18 10:42:28;;;;;;;14.57;6.45;;;;;;;2.56;100.00;100310.06;6197002;28;20053;-71
2022/11/18 10:45:31;;;;;;;18.52;8.07;;;;;;;2.53;100.00;100310.97;6196741;28;20461;-71
2022/11/18 10:48:33;;;;;;;14.88;6.53;;;;;;;2.54;100.00;100317.88;6191853;28;20426;-72
2022/11/18 10:51:35;;;;;;;18.67;7.53;;;;;;;2.52;100.00;100319.66;6172691;28;20051;-73
2022/11/18 10:54:37;;;;;;;17.17;7.65;;;;;;;2.62;100.00;100320.25;6185254;28;20051;-72
2022/11/18 10:57:42;;;;;;;15.52;6.95;;;;;;;2.66;100.00;100337.44;6189223;28;20050;-73
2022/11/18 11:00:46;;;;;;;17.95;7.30;;;;;;;2.67;100.00;100336.53;6173106;28;20066;-72
2022/11/18 11:03:59;;;;;;;20.40;7.38;;;;;;;2.68;100.00;100335.66;6195222;28;20487;-71
2022/11/18 11:07:15;;;;;;;22.20;9.05;;;;;;;2.43;100.00;100337.22;6197217;28;20057;-72
2022/11/18 11:10:22;;;;;;;15.55;7.25;;;;;;;2.44;100.00;100336.31;6197089;28;20046;-72
2022/11/18 11:13:28;;;;;;;16.52;8.23;;;;;;;2.48;100.00;100332.75;6202117;28;20054;-72
2022/11/18 11:16:32;;;;;;;18.27;8.63;;;;;;;2.47;100.00;100344.00;6201112;28;20049;-72
2022/11/18 11:19:43;;;;;;;18.23;8.23;;;;;;;2.49;100.00;100344.81;6201809;28;20051;-72
2022/11/18 11:22:45;;;;;;;15.07;6.80;;;;;;;2.35;100.00;100345.19;6201261;28;20534;-72
2022/11/18 11:25:54;;;;;;;19.88;8.50;;;;;;;2.54;100.00;100348.13;6201145;28;20050;-71
2022/11/18 11:29:05;;;;;;;20.35;8.05;;;;;;;2.40;100.00;100356.28;6182265;28;20066;-71
2022/11/18 11:32:15;;;;;;;20.60;8.90;;;;;;;2.47;100.00;100359.56;6176764;28;20047;-71
2022/11/18 11:35:21;;;;;;;20.35;7.90;;;;;;;2.45;100.00;100367.41;6176683;28;20050;-71
2022/11/18 11:38:35;;;;;;;20.55;7.18;;;;;;;2.39;100.00;100364.94;6177043;28;20503;-71
2022/11/18 11:41:46;;;;;;;16.77;7.40;;;;;;;2.34;100.00;100377.19;6176533;28;20051;-71
2022/11/18 11:45:01;;;;;;;18.08;8.43;;;;;;;2.17;100.00;100384.53;6176325;28;20051;-71
2022/11/18 11:48:20;;;;;;;16.70;6.35;;;;;;;2.06;100.00;100378.78;6176775;28;20053;-71
2022/11/18 11:51:31;;;;;;;14.57;7.40;;;;;;;2.17;100.00;100387.97;6176231;28;20051;-72
2022/11/18 11:54:45;;;;;;;17.95;7.00;;;;;;;2.17;100.00;100385.38;6176523;28;20055;-72
2022/11/18 11:58:04;;;;;;;11.40;5.85;;;;;;;2.24;100.00;100386.09;6176719;28;20057;-73
2022/11/18 12:01:17;;;;;;;16.05;6.90;;;;;;;2.35;100.00;100383.22;6179444;28;20418;-71
2022/11/18 12:04:29;;;;;;;13.18;6.53;;;;;;;2.21;100.00;100389.59;6200183;28;20046;-71
2022/11/18 12:07:45;;;;;;;14.30;6.68;;;;;;;2.21;100.00;100391.34;6200423;28;20057;-72
2022/11/18 12:10:52;;;;;;;12.07;5.43;;;;;;;2.35;100.00;100391.00;6200076;28;20050;-71
2022/11/18 12:13:59;;;;;;;17.92;8.07;;;;;;;2.35;100.00;100406.56;6200070;28;20054;-71
2022/11/18 12:17:12;;;;;;;15.35;7.70;;;;;;;2.35;100.00;100403.97;6200414;28;20050;-71
2022/11/18 12:20:36;;;;;;;13.13;6.32;;;;;;;2.27;100.00;100414.50;6199939;28;20053;-71
2022/11/18 12:23:38;;;;;;;15.40;6.25;;;;;;;2.19;100.00;100408.69;6199624;28;20050;-71
2022/11/18 12:26:39;;;;;;;20.05;6.60;;;;;;;2.20;100.00;100408.63;6195671;28;20054;-71
2022/11/18 12:29:54;;;;;;;12.48;5.40;;;;;;;2.08;100.00;100414.13;6194235;28;20502;-71
2022/11/18 12:32:57;;;;;;;15.20;5.95;;;;;;;1.97;100.00;100410.94;6197443;28;20051;-71
2022/11/18 12:35:59;;;;;;;11.85;5.72;;;;;;;2.08;100.00;100414.13;6199169;28;20054;-71
2022/11/18 12:39:43;;;;;;;13.13;6.40;;;;;;;1.96;100.00;100419.59;6194299;28;20053;-71
2022/11/18 12:46:05;;;;;;;11.73;5.13;;;;;;;2.04;100.00;100420.25;6198142;28;20061;-74
2022/11/18 12:49:40;;;;;;;11.23;5.35;;;;;;;1.87;100.00;100427.59;6199528;28;20498;-71
2022/11/18 12:53:01;;;;;;;11.93;5.78;;;;;;;1.83;100.00;100431.13;6199166;28;20050;-71
2022/11/18 12:56:12;;;;;;;14.15;6.13;;;;;;;1.94;100.00;100432.56;6199136;28;20069;-73
2022/11/18 12:59:13;;;;;;;12.32;6.03;;;;;;;1.93;100.00;100437.81;6199149;28;20414;-71
2022/11/18 13:02:23;;;;;;;8.50;4.82;;;;;;;1.85;100.00;100442.31;6198955;28;20058;-73
2022/11/18 13:05:26;;;;;;;9.65;4.75;;;;;;;1.94;100.00;100437.75;6197716;28;20050;-71
2022/11/18 13:08:29;;;;;;;10.02;5.13;;;;;;;1.90;100.00;100435.28;6197366;28;20042;-71
2022/11/18 13:11:45;;;;;;;13.85;6.28;;;;;;;1.99;100.00;100440.25;6198364;28;20053;-71
2022/11/18 13:18:19;;;;;;;7.93;4.93;;;;;;;2.06;100.00;100439.22;6123379;29;20056;-71
2022/11/18 13:24:47;;;;;;;12.55;5.72;;;;;;;2.12;100.00;100453.78;6198275;28;20565;-71
2022/11/18 13:27:52;;;;;;;11.93;5.43;;;;;;;2.03;100.00;100460.03;6198607;28;20054;-71
2022/11/18 13:30:59;;;;;;;11.82;5.60;;;;;;;2.06;100.00;100459.97;6198357;28;20053;-72
2022/11/18 13:34:02;;;;;;;13.63;6.15;;;;;;;2.00;100.00;100460.97;6197985;28;20054;-71
2022/11/18 13:37:03;;;;;;;16.80;7.53;;;;;;;1.93;100.00;100461.13;6198598;28;20472;-71
2022/11/18 13:40:18;;;;;;;16.98;6.80;;;;;;;1.97;100.00;100461.03;6197892;28;20502;-71
2022/11/18 13:43:26;;;;;;;13.45;6.63;;;;;;;1.94;100.00;100463.66;6198632;28;20050;-71
2022/11/18 13:46:27;;;;;;;16.33;6.20;;;;;;;1.91;100.00;100466.34;6197663;28;20046;-70
2022/11/18 13:49:41;;;;;;;17.27;7.07;;;;;;;1.99;100.00;100467.00;6198447;28;20502;-72
2022/11/18 13:52:46;;;;;;;20.27;8.07;;;;;;;1.91;100.00;100473.28;6197791;28;20061;-70
2022/11/18 13:55:54;;;;;;;14.00;7.35;;;;;;;1.87;100.00;100467.31;6197827;28;20089;-69
2022/11/18 13:58:59;;;;;;;13.93;8.23;;;;;;;1.90;100.00;100477.56;6198075;28;20053;-73
2022/11/18 14:02:01;;;;;;;15.48;7.63;;;;;;;1.93;100.00;100466.31;6197903;28;20054;-72
2022/11/18 14:05:02;;;;;;;17.73;7.50;;;;;;;1.84;100.00;100476.88;6197641;28;20065;-71
2022/11/18 14:08:06;;;;;;;15.88;7.50;;;;;;;1.72;100.00;100491.78;6197816;28;20057;-72
2022/11/18 14:11:10;;;;;;;14.50;6.93;;;;;;;1.73;100.00;100485.75;6197689;28;20089;-72
2022/11/18 14:14:13;;;;;;;14.88;7.15;;;;;;;1.68;100.00;100482.41;6197406;28;20054;-72
2022/11/18 14:17:17;;;;;;;13.65;5.95;;;;;;;1.78;100.00;100496.00;6197843;28;20050;-72
2022/11/18 14:20:19;;;;;;;19.02;8.02;;;;;;;1.81;100.00;100493.31;6197323;28;20054;-72
2022/11/18 14:23:27;;;;;;;15.75;7.93;;;;;;;1.60;100.00;100501.56;6197615;28;20454;-71
2022/11/18 14:26:32;;;;;;;15.93;7.93;;;;;;;1.51;100.00;100506.03;6197168;28;20046;-72
2022/11/18 14:29:33;;;;;;;19.38;8.60;;;;;;;1.51;100.00;100513.81;6197675;28;20433;-72
2022/11/18 14:32:35;;;;;;;17.13;8.52;;;;;;;1.57;100.00;100522.34;6197343;28;20046;-72
2022/11/18 14:35:36;;;;;;;19.23;8.15;;;;;;;1.44;100.00;100526.91;6197357;28;20054;-72
2022/11/18 14:38:43;;;;;;;15.88;7.45;;;;;;;1.38;100.00;100533.06;6197503;28;20051;-72
2022/11/18 14:41:49;;;;;;;17.02;8.57;;;;;;;1.48;100.00;100533.72;6197437;28;20050;-72
2022/11/18 14:44:50;;;;;;;19.13;8.30;;;;;;;1.43;100.00;100538.16;6196904;28;20050;-72